BOV558 SLUY-SLAL
Flight info
| Callsign | BOV558 |
|---|---|
| Flight time | 0h 24m |
| Altitude | 21000 |
| Route | ALC UNI |
| Aircraft | CRJ2/M-V/N |
Departure
| Time | 2026-05-04 00:55 |
|---|---|
| Airport | Joya Andina International Airport (SLUY) |
Arrival
| Time | 2026-05-04 01:19 |
|---|---|
| Airport | Alcantarí International Airport (SLAL) |
| Time | Latitude | Longitude | Altitude | Speed | Heading |
|---|---|---|---|---|---|
| 2026-05-04 00:49 | -20.44531 | -66.84402 | 12056 ft | 0 kts | 168° |
| 2026-05-04 00:52 | -20.44532 | -66.84402 | 12056 ft | 0 kts | 168° |
| 2026-05-04 00:53 | -20.44533 | -66.84402 | 12056 ft | 0 kts | 168° |
| 2026-05-04 00:53 | -20.44534 | -66.84402 | 12056 ft | 2 kts | 168° |
| 2026-05-04 00:54 | -20.44585 | -66.84393 | 12056 ft | 14 kts | 175° |
| 2026-05-04 00:54 | -20.44658 | -66.84405 | 12056 ft | 7 kts | 200° |
| 2026-05-04 00:54 | -20.44696 | -66.84413 | 12056 ft | 7 kts | 182° |
| 2026-05-04 00:54 | -20.44767 | -66.84400 | 12056 ft | 15 kts | 165° |
| 2026-05-04 00:55 | -20.44875 | -66.84387 | 12056 ft | 11 kts | 238° |
| 2026-05-04 00:55 | -20.44781 | -66.84593 | 12056 ft | 64 kts | 292° |
| 2026-05-04 00:55 | -20.44430 | -66.85225 | 12056 ft | 136 kts | 296° |
| 2026-05-04 00:55 | -20.43827 | -66.86295 | 12074 ft | 202 kts | 302° |
| 2026-05-04 00:56 | -20.42968 | -66.87777 | 12187 ft | 262 kts | 301° |
| 2026-05-04 00:56 | -20.41927 | -66.89598 | 12320 ft | 313 kts | 301° |
| 2026-05-04 00:56 | -20.40414 | -66.91444 | 12481 ft | 351 kts | 328° |
| 2026-05-04 00:56 | -20.38024 | -66.91950 | 13036 ft | 363 kts | 11° |
| 2026-05-04 00:57 | -20.35874 | -66.90691 | 14653 ft | 340 kts | 42° |
| 2026-05-04 00:57 | -20.34289 | -66.88871 | 16016 ft | 341 kts | 49° |
| 2026-05-04 00:57 | -20.32963 | -66.86693 | 16604 ft | 358 kts | 60° |
| 2026-05-04 00:57 | -20.32022 | -66.84193 | 17516 ft | 363 kts | 72° |
| 2026-05-04 00:58 | -20.31428 | -66.81538 | 18065 ft | 377 kts | 76° |
| 2026-05-04 00:58 | -20.30904 | -66.78742 | 18334 ft | 399 kts | 78° |
| 2026-05-04 00:58 | -20.30329 | -66.75723 | 18204 ft | 431 kts | 77° |
| 2026-05-04 00:58 | -20.29863 | -66.73665 | 18356 ft | 408 kts | 74° |
| 2026-05-04 00:59 | -20.28925 | -66.70100 | 18772 ft | 349 kts | 72° |
| 2026-05-04 00:59 | -20.28481 | -66.68501 | 18927 ft | 326 kts | 72° |
| 2026-05-04 00:59 | -20.27857 | -66.66284 | 19155 ft | 296 kts | 71° |
| 2026-05-04 00:59 | -20.27265 | -66.64244 | 19386 ft | 291 kts | 70° |
| 2026-05-04 01:00 | -20.26562 | -66.62131 | 19652 ft | 317 kts | 66° |
| 2026-05-04 01:00 | -20.25642 | -66.59877 | 19925 ft | 342 kts | 63° |
| 2026-05-04 01:00 | -20.24525 | -66.57557 | 20191 ft | 369 kts | 59° |
| 2026-05-04 01:00 | -20.23202 | -66.55112 | 20456 ft | 393 kts | 57° |
| 2026-05-04 01:01 | -20.21730 | -66.52599 | 20715 ft | 414 kts | 55° |
| 2026-05-04 01:01 | -20.20087 | -66.49941 | 20873 ft | 433 kts | 54° |
| 2026-05-04 01:01 | -20.18380 | -66.47278 | 20975 ft | 435 kts | 53° |
| 2026-05-04 01:01 | -20.16666 | -66.44665 | 20999 ft | 431 kts | 53° |
| 2026-05-04 01:02 | -20.14917 | -66.42042 | 20997 ft | 429 kts | 52° |
| 2026-05-04 01:02 | -20.13185 | -66.39476 | 20996 ft | 428 kts | 52° |
| 2026-05-04 01:02 | -20.11446 | -66.36921 | 20996 ft | 428 kts | 52° |
| 2026-05-04 01:02 | -20.09674 | -66.34335 | 20996 ft | 428 kts | 52° |
| 2026-05-04 01:03 | -20.07917 | -66.31783 | 20996 ft | 428 kts | 52° |
| 2026-05-04 01:03 | -20.06169 | -66.29253 | 20996 ft | 428 kts | 51° |
| 2026-05-04 01:03 | -20.04383 | -66.26675 | 20996 ft | 428 kts | 51° |
| 2026-05-04 01:03 | -20.02622 | -66.24140 | 20996 ft | 428 kts | 51° |
| 2026-05-04 01:04 | -20.00840 | -66.21577 | 20996 ft | 428 kts | 51° |
| 2026-05-04 01:04 | -19.99070 | -66.19037 | 20996 ft | 428 kts | 51° |
| 2026-05-04 01:04 | -19.97303 | -66.16502 | 20996 ft | 428 kts | 51° |
| 2026-05-04 01:04 | -19.95532 | -66.13965 | 20996 ft | 428 kts | 51° |
| 2026-05-04 01:05 | -19.93736 | -66.11394 | 20996 ft | 428 kts | 51° |
| 2026-05-04 01:05 | -19.91963 | -66.08859 | 20996 ft | 428 kts | 51° |
| 2026-05-04 01:05 | -19.90188 | -66.06322 | 20996 ft | 428 kts | 51° |
| 2026-05-04 01:05 | -19.88399 | -66.03766 | 20996 ft | 428 kts | 51° |
| 2026-05-04 01:06 | -19.87817 | -66.02936 | 20996 ft | 428 kts | 51° |
| 2026-05-04 01:06 | -19.84840 | -65.98687 | 20996 ft | 428 kts | 51° |
| 2026-05-04 01:06 | -19.83047 | -65.96129 | 20996 ft | 428 kts | 51° |
| 2026-05-04 01:06 | -19.81270 | -65.93596 | 20996 ft | 428 kts | 51° |
| 2026-05-04 01:07 | -19.79498 | -65.91072 | 20996 ft | 428 kts | 51° |
| 2026-05-04 01:07 | -19.77701 | -65.88512 | 20996 ft | 428 kts | 51° |
| 2026-05-04 01:07 | -19.75929 | -65.85990 | 20996 ft | 428 kts | 51° |
| 2026-05-04 01:07 | -19.74157 | -65.83469 | 20996 ft | 428 kts | 51° |
| 2026-05-04 01:08 | -19.72359 | -65.80912 | 20996 ft | 428 kts | 51° |
| 2026-05-04 01:08 | -19.70591 | -65.78398 | 20996 ft | 428 kts | 51° |
| 2026-05-04 01:08 | -19.68803 | -65.75858 | 20996 ft | 428 kts | 51° |
| 2026-05-04 01:08 | -19.67016 | -65.73320 | 20996 ft | 428 kts | 51° |
| 2026-05-04 01:09 | -19.65239 | -65.70797 | 20996 ft | 428 kts | 51° |
| 2026-05-04 01:09 | -19.63463 | -65.68277 | 20996 ft | 428 kts | 51° |
| 2026-05-04 01:09 | -19.61667 | -65.65728 | 20996 ft | 428 kts | 51° |
| 2026-05-04 01:09 | -19.59877 | -65.63190 | 20996 ft | 428 kts | 51° |
| 2026-05-04 01:10 | -19.58109 | -65.60684 | 20996 ft | 428 kts | 51° |
| 2026-05-04 01:10 | -19.56299 | -65.58120 | 20996 ft | 428 kts | 51° |
| 2026-05-04 01:10 | -19.54523 | -65.55605 | 20996 ft | 428 kts | 51° |
| 2026-05-04 01:10 | -19.52725 | -65.53059 | 20996 ft | 428 kts | 51° |
| 2026-05-04 01:11 | -19.50965 | -65.50568 | 20996 ft | 428 kts | 51° |
| 2026-05-04 01:11 | -19.49165 | -65.48022 | 20996 ft | 428 kts | 51° |
| 2026-05-04 01:11 | -19.47383 | -65.45503 | 20996 ft | 428 kts | 51° |
| 2026-05-04 01:11 | -19.45582 | -65.42957 | 20996 ft | 428 kts | 51° |
| 2026-05-04 01:12 | -19.43804 | -65.40445 | 20996 ft | 428 kts | 51° |
| 2026-05-04 01:12 | -19.42016 | -65.37920 | 20996 ft | 428 kts | 51° |
| 2026-05-04 01:12 | -19.40237 | -65.35408 | 20996 ft | 428 kts | 51° |
| 2026-05-04 01:12 | -19.38445 | -65.32880 | 20996 ft | 428 kts | 51° |
| 2026-05-04 01:13 | -19.36659 | -65.30361 | 20996 ft | 428 kts | 51° |
| 2026-05-04 01:13 | -19.34859 | -65.27823 | 20996 ft | 428 kts | 51° |
| 2026-05-04 01:13 | -19.33077 | -65.25311 | 20996 ft | 428 kts | 51° |
| 2026-05-04 01:13 | -19.31274 | -65.22770 | 20996 ft | 428 kts | 51° |
| 2026-05-04 01:14 | -19.29489 | -65.20256 | 20996 ft | 428 kts | 51° |
| 2026-05-04 01:14 | -19.27613 | -65.18053 | 21445 ft | 372 kts | 35° |
| 2026-05-04 01:14 | -19.25498 | -65.16627 | 20631 ft | 356 kts | 21° |
| 2026-05-04 01:14 | -19.23268 | -65.15629 | 19127 ft | 344 kts | 17° |
| 2026-05-04 01:15 | -19.21077 | -65.14876 | 16986 ft | 325 kts | 11° |
| 2026-05-04 01:15 | -19.18773 | -65.14445 | 16045 ft | 313 kts | 358° |
| 2026-05-04 01:15 | -19.16648 | -65.14530 | 14858 ft | 297 kts | 351° |
| 2026-05-04 01:15 | -19.14643 | -65.14755 | 13719 ft | 287 kts | 349° |
| 2026-05-04 01:16 | -19.12719 | -65.14989 | 12962 ft | 271 kts | 351° |
| 2026-05-04 01:16 | -19.10939 | -65.15515 | 11954 ft | 268 kts | 328° |
| 2026-05-04 01:16 | -19.09481 | -65.16705 | 11276 ft | 254 kts | 326° |
| 2026-05-04 01:16 | -19.09200 | -65.16895 | 11147 ft | 252 kts | 328° |
| 2026-05-04 01:17 | -19.08189 | -65.18015 | 11536 ft | 233 kts | 282° |
| 2026-05-04 01:17 | -19.08797 | -65.19586 | 11783 ft | 266 kts | 211° |
| 2026-05-04 01:17 | -19.10751 | -65.19874 | 11718 ft | 307 kts | 165° |
| 2026-05-04 01:17 | -19.12782 | -65.18962 | 11766 ft | 331 kts | 151° |
| 2026-05-04 01:18 | -19.14728 | -65.17840 | 11924 ft | 295 kts | 151° |
| 2026-05-04 01:18 | -19.16389 | -65.16919 | 12030 ft | 250 kts | 154° |
| 2026-05-04 01:18 | -19.17966 | -65.16228 | 11530 ft | 237 kts | 160° |
| 2026-05-04 01:18 | -19.19528 | -65.15764 | 10996 ft | 230 kts | 170° |
| 2026-05-04 01:19 | -19.21060 | -65.15466 | 10597 ft | 220 kts | 169° |
| 2026-05-04 01:19 | -19.22532 | -65.15175 | 10286 ft | 209 kts | 169° |
| 2026-05-04 01:19 | -19.23789 | -65.14924 | 10216 ft | 120 kts | 170° |
| 2026-05-04 01:19 | -19.24207 | -65.14826 | 10216 ft | 19 kts | 172° |
| 2026-05-04 01:20 | -19.24336 | -65.14811 | 10216 ft | 18 kts | 174° |
| 2026-05-04 01:20 | -19.24410 | -65.14867 | 10216 ft | 13 kts | 262° |
| 2026-05-04 01:20 | -19.24443 | -65.14947 | 10216 ft | 11 kts | 216° |
| 2026-05-04 01:20 | -19.24504 | -65.14959 | 10216 ft | 8 kts | 179° |
| 2026-05-04 01:21 | -19.24548 | -65.14961 | 10216 ft | 5 kts | 222° |
| 2026-05-04 01:21 | -19.24558 | -65.14988 | 10216 ft | 3 kts | 256° |
| 2026-05-04 01:21 | -19.24559 | -65.14993 | 10216 ft | 0 kts | 259° |